Time;durP1;ratioP1;P1;durP2;ratioP2;P2;SDS_P1;SDS_P2;PMS_P1;PMS_P2;Temp;Humidity;BMP_temperature;BMP_pressure;BME280_temperature;BME280_humidity;BME280_pressure;Samples;Min_cycle;Max_cycle;Signal;HPM_P1;HPM_P2
2023/08/14 00:00:25;;;;;;;18.85;7.57;;;;;;;;;;4973150;28;20026;-58
2023/08/14 00:02:51;;;;;;;21.85;8.15;;;;;;;;;;4972735;28;20046;-62
2023/08/14 00:05:17;;;;;;;21.02;7.82;;;;;;;;;;4973143;28;20494;-61
2023/08/14 00:07:43;;;;;;;20.05;7.78;;;;;;;;;;4970995;28;20274;-55
2023/08/14 00:10:09;;;;;;;19.52;7.97;;;;;;;;;;4972192;28;20031;-59
2023/08/14 00:12:35;;;;;;;22.65;7.85;;;;;;;;;;4957925;28;20110;-59
2023/08/14 00:15:01;;;;;;;18.15;7.55;;;;;;;;;;4953435;28;20028;-61
2023/08/14 00:17:27;;;;;;;18.85;8.02;;;;;;;;;;4953715;28;20103;-61
2023/08/14 00:19:53;;;;;;;18.63;7.70;;;;;;;;;;4953882;28;20028;-56
2023/08/14 00:22:19;;;;;;;22.08;7.70;;;;;;;;;;4955314;28;20051;-60
2023/08/14 00:24:45;;;;;;;19.83;7.70;;;;;;;;;;4952831;28;20400;-59
2023/08/14 00:27:11;;;;;;;19.90;8.23;;;;;;;;;;5056034;28;20073;-61
2023/08/14 00:29:37;;;;;;;19.23;8.10;;;;;;;;;;4971584;28;20379;-58
2023/08/14 00:32:03;;;;;;;19.00;7.40;;;;;;;;;;4965781;28;20058;-55
2023/08/14 00:34:29;;;;;;;18.63;7.32;;;;;;;;;;5051282;28;20272;-60
2023/08/14 00:36:55;;;;;;;19.40;7.57;;;;;;;;;;5052586;28;20023;-54
2023/08/14 00:39:21;;;;;;;17.27;7.75;;;;;;;;;;5052133;28;20460;-61
2023/08/14 00:41:47;;;;;;;19.23;7.90;;;;;;;;;;4965140;28;20042;-59
2023/08/14 00:44:13;;;;;;;18.92;7.20;;;;;;;;;;4972058;28;20541;-55
2023/08/14 00:46:40;;;;;;;19.45;7.35;;;;;;;;;;4970251;28;20031;-59
2023/08/14 00:49:06;;;;;;;19.02;7.75;;;;;;;;;;4970989;28;20054;-60
2023/08/14 00:51:32;;;;;;;19.55;7.75;;;;;;;;;;4971222;28;20475;-61
2023/08/14 00:53:58;;;;;;;22.75;7.72;;;;;;;;;;4972777;28;20023;-60
2023/08/14 00:56:24;;;;;;;21.40;7.50;;;;;;;;;;4972397;28;20084;-52
2023/08/14 00:58:50;;;;;;;18.95;7.38;;;;;;;;;;4971022;28;20026;-61
2023/08/14 01:01:16;;;;;;;18.30;7.18;;;;;;;;;;4970013;28;20104;-61
2023/08/14 01:03:42;;;;;;;17.45;7.18;;;;;;;;;;4970496;28;20101;-60
2023/08/14 01:06:08;;;;;;;18.45;8.15;;;;;;;;;;4972227;28;20066;-58
2023/08/14 01:08:35;;;;;;;18.55;8.32;;;;;;;;;;4971854;28;20027;-61
2023/08/14 01:11:05;;;;;;;20.05;7.60;;;;;;;;;;4971518;28;20061;-58
2023/08/14 01:13:37;;;;;;;18.80;7.68;;;;;;;;;;4970307;28;20436;-59
2023/08/14 01:16:14;;;;;;;20.63;7.43;;;;;;;;;;4970642;28;20075;-60
2023/08/14 01:18:43;;;;;;;18.48;7.70;;;;;;;;;;4962091;28;20027;-57
2023/08/14 01:21:22;;;;;;;20.45;8.45;;;;;;;;;;4954648;28;20092;-61
2023/08/14 01:24:07;;;;;;;19.67;8.23;;;;;;;;;;4956532;28;20035;-61
2023/08/14 01:26:34;;;;;;;19.25;8.18;;;;;;;;;;5055953;28;20542;-59
2023/08/14 01:29:01;;;;;;;18.95;7.63;;;;;;;;;;4957050;28;20079;-60
2023/08/14 01:31:27;;;;;;;22.73;7.78;;;;;;;;;;4956007;28;20081;-60
2023/08/14 01:33:54;;;;;;;20.15;7.78;;;;;;;;;;5058761;28;20516;-53
2023/08/14 01:36:27;;;;;;;19.48;8.32;;;;;;;;;;4974807;28;20035;-56
2023/08/14 01:38:53;;;;;;;17.92;7.55;;;;;;;;;;4975782;28;20069;-59
2023/08/14 01:41:23;;;;;;;18.02;8.15;;;;;;;;;;4975466;28;20027;-61
2023/08/14 01:43:50;;;;;;;19.00;7.70;;;;;;;;;;4973775;28;20037;-62
2023/08/14 01:46:16;;;;;;;18.20;8.25;;;;;;;;;;4975325;28;20031;-57
2023/08/14 01:48:43;;;;;;;21.20;8.00;;;;;;;;;;4960237;28;20126;-55
2023/08/14 01:51:10;;;;;;;18.88;8.00;;;;;;;;;;4956301;28;20031;-61
2023/08/14 01:53:37;;;;;;;20.85;9.10;;;;;;;;;;4956305;28;20514;-54
2023/08/14 01:56:03;;;;;;;17.70;7.85;;;;;;;;;;4956470;28;20542;-60
2023/08/14 01:58:29;;;;;;;18.92;8.40;;;;;;;;;;4957281;28;20426;-58
2023/08/14 02:00:55;;;;;;;18.73;7.75;;;;;;;;;;4956110;28;20040;-57
2023/08/14 02:03:21;;;;;;;17.70;8.10;;;;;;;;;;5060493;28;20038;-60
2023/08/14 02:05:47;;;;;;;20.35;8.75;;;;;;;;;;4974570;28;20035;-60
2023/08/14 02:08:13;;;;;;;20.30;8.98;;;;;;;;;;4975545;28;20035;-57
2023/08/14 02:10:39;;;;;;;18.52;8.10;;;;;;;;;;4975860;28;20019;-58
2023/08/14 02:13:05;;;;;;;18.75;7.40;;;;;;;;;;4973633;28;20027;-60
2023/08/14 02:15:31;;;;;;;21.35;8.38;;;;;;;;;;4975896;28;20887;-55
2023/08/14 02:17:57;;;;;;;19.85;9.00;;;;;;;;;;4963986;28;20035;-61
2023/08/14 02:20:23;;;;;;;17.70;7.32;;;;;;;;;;5055928;28;20035;-58
2023/08/14 02:22:49;;;;;;;20.10;8.32;;;;;;;;;;4955627;28;20034;-60
2023/08/14 02:25:15;;;;;;;21.40;8.35;;;;;;;;;;5041908;28;20025;-57
2023/08/14 02:27:41;;;;;;;23.38;8.20;;;;;;;;;;5051594;28;20400;-60
2023/08/14 02:30:08;;;;;;;20.23;8.70;;;;;;;;;;4957126;28;20114;-59
2023/08/14 02:32:34;;;;;;;19.45;7.43;;;;;;;;;;4965745;28;20023;-59
2023/08/14 02:35:00;;;;;;;19.45;8.10;;;;;;;;;;4974536;28;20027;-60
2023/08/14 02:37:26;;;;;;;20.02;7.65;;;;;;;;;;4972778;28;20044;-60
2023/08/14 02:39:52;;;;;;;24.33;8.48;;;;;;;;;;4972829;28;20125;-61
2023/08/14 02:42:20;;;;;;;18.45;7.95;;;;;;;;;;4971842;28;20022;-60
2023/08/14 02:44:46;;;;;;;17.55;7.75;;;;;;;;;;4972960;28;20030;-59
2023/08/14 02:47:12;;;;;;;19.90;7.80;;;;;;;;;;4964700;28;20038;-57
2023/08/14 02:49:38;;;;;;;18.42;7.72;;;;;;;;;;4954452;28;20031;-59
2023/08/14 02:52:04;;;;;;;19.73;8.50;;;;;;;;;;4955840;28;20518;-60
2023/08/14 02:54:30;;;;;;;20.05;8.15;;;;;;;;;;4954682;28;20023;-62
2023/08/14 02:56:56;;;;;;;22.05;8.50;;;;;;;;;;4954351;28;20549;-60
2023/08/14 02:59:23;;;;;;;20.55;8.45;;;;;;;;;;5054461;28;20031;-61
2023/08/14 03:01:49;;;;;;;20.00;7.85;;;;;;;;;;4961970;28;20030;-57
2023/08/14 03:04:16;;;;;;;18.58;7.15;;;;;;;;;;4973421;28;20022;-58
2023/08/14 03:06:42;;;;;;;23.77;8.05;;;;;;;;;;4971660;28;20023;-61
2023/08/14 03:09:08;;;;;;;18.77;7.35;;;;;;;;;;4973440;28;20045;-59
2023/08/14 03:11:34;;;;;;;17.70;7.90;;;;;;;;;;4972883;28;20038;-56
2023/08/14 03:14:00;;;;;;;19.00;8.35;;;;;;;;;;4934788;28;20031;-61
2023/08/14 03:16:26;;;;;;;23.15;8.65;;;;;;;;;;4947044;28;20353;-60
2023/08/14 03:18:52;;;;;;;19.73;7.60;;;;;;;;;;4973411;28;20031;-60
2023/08/14 03:21:18;;;;;;;20.25;7.70;;;;;;;;;;4973477;28;20049;-62
2023/08/14 03:23:45;;;;;;;19.77;8.20;;;;;;;;;;4972185;28;20034;-61
2023/08/14 03:26:11;;;;;;;20.05;7.50;;;;;;;;;;4971330;28;20080;-60
2023/08/14 03:28:37;;;;;;;19.92;7.72;;;;;;;;;;4971791;28;20027;-59
2023/08/14 03:31:03;;;;;;;19.65;7.95;;;;;;;;;;4967574;28;20035;-56
2023/08/14 03:33:29;;;;;;;20.10;7.47;;;;;;;;;;4954486;28;20118;-61
2023/08/14 03:35:55;;;;;;;19.00;7.40;;;;;;;;;;4954018;28;20560;-59
2023/08/14 03:38:21;;;;;;;20.38;8.02;;;;;;;;;;4953846;28;20393;-57
2023/08/14 03:40:47;;;;;;;20.50;7.75;;;;;;;;;;4953692;28;20387;-53
2023/08/14 03:43:13;;;;;;;19.50;7.75;;;;;;;;;;4952237;28;20034;-59
2023/08/14 03:45:39;;;;;;;19.05;8.05;;;;;;;;;;4955607;28;20045;-61
2023/08/14 03:48:05;;;;;;;18.60;8.15;;;;;;;;;;4974760;28;20078;-60
2023/08/14 03:50:31;;;;;;;22.67;8.02;;;;;;;;;;5052621;28;20047;-57
2023/08/14 03:52:57;;;;;;;19.70;8.07;;;;;;;;;;5052140;28;20107;-58
2023/08/14 03:55:23;;;;;;;23.92;8.32;;;;;;;;;;5053810;28;20414;-54
2023/08/14 03:57:49;;;;;;;24.77;8.15;;;;;;;;;;5054130;28;20024;-58
2023/08/14 04:00:15;;;;;;;23.95;7.97;;;;;;;;;;5045543;28;20024;-60
2023/08/14 04:02:41;;;;;;;18.17;7.85;;;;;;;;;;4969802;28;20062;-59
2023/08/14 04:05:07;;;;;;;20.42;8.55;;;;;;;;;;4971681;28;21023;-57
2023/08/14 04:07:33;;;;;;;20.50;9.45;;;;;;;;;;4972157;28;20031;-59
2023/08/14 04:09:59;;;;;;;18.33;7.75;;;;;;;;;;4972546;28;20026;-62
2023/08/14 04:12:25;;;;;;;18.52;8.25;;;;;;;;;;4969516;28;20603;-61
2023/08/14 04:14:52;;;;;;;20.67;8.73;;;;;;;;;;4970719;28;20046;-58
2023/08/14 04:17:18;;;;;;;17.02;7.45;;;;;;;;;;4934137;28;20375;-54
2023/08/14 04:19:44;;;;;;;19.67;8.07;;;;;;;;;;4933801;28;20058;-61
2023/08/14 04:22:10;;;;;;;27.50;9.10;;;;;;;;;;4934450;28;20019;-62
2023/08/14 04:24:36;;;;;;;19.05;8.10;;;;;;;;;;4950957;28;20030;-62
2023/08/14 04:27:02;;;;;;;18.65;7.63;;;;;;;;;;4954511;28;20095;-61
2023/08/14 04:29:28;;;;;;;21.38;8.40;;;;;;;;;;4952749;28;20078;-59
2023/08/14 04:31:54;;;;;;;20.58;8.18;;;;;;;;;;4953558;28;20574;-57
2023/08/14 04:34:20;;;;;;;19.65;9.50;;;;;;;;;;4951961;28;20028;-57
2023/08/14 04:36:47;;;;;;;22.98;8.68;;;;;;;;;;4952480;28;20032;-60
2023/08/14 04:39:14;;;;;;;19.27;8.48;;;;;;;;;;4952038;28;20097;-57
2023/08/14 04:41:40;;;;;;;19.92;7.70;;;;;;;;;;4953812;28;20134;-59
2023/08/14 04:44:06;;;;;;;20.40;7.55;;;;;;;;;;4952304;28;20503;-59
2023/08/14 04:46:33;;;;;;;20.02;7.93;;;;;;;;;;4952316;28;20031;-59
2023/08/14 04:48:59;;;;;;;20.83;8.43;;;;;;;;;;4951978;28;20045;-57
2023/08/14 04:51:25;;;;;;;21.65;8.55;;;;;;;;;;4953016;28;20118;-57
2023/08/14 04:53:52;;;;;;;20.17;7.90;;;;;;;;;;4994615;28;20068;-58
2023/08/14 04:56:18;;;;;;;20.13;8.27;;;;;;;;;;5041252;28;20023;-53
2023/08/14 04:58:44;;;;;;;19.52;8.73;;;;;;;;;;4975264;28;20364;-53
2023/08/14 05:01:10;;;;;;;20.10;8.60;;;;;;;;;;4975082;28;20037;-60
2023/08/14 05:03:36;;;;;;;20.80;8.93;;;;;;;;;;4973332;28;20050;-59
2023/08/14 05:06:02;;;;;;;18.02;7.75;;;;;;;;;;4974486;28;20478;-60
2023/08/14 05:08:28;;;;;;;23.05;9.38;;;;;;;;;;4972102;28;20031;-59
2023/08/14 05:10:55;;;;;;;22.00;8.73;;;;;;;;;;4971482;28;20569;-60
2023/08/14 05:13:21;;;;;;;19.23;9.07;;;;;;;;;;4960812;28;20451;-62
2023/08/14 05:15:48;;;;;;;19.33;9.57;;;;;;;;;;4955173;28;20039;-61
2023/08/14 05:18:14;;;;;;;21.50;9.27;;;;;;;;;;4971493;28;20031;-58
2023/08/14 05:20:43;;;;;;;19.58;9.52;;;;;;;;;;4975012;28;20027;-61
2023/08/14 05:23:09;;;;;;;20.08;9.68;;;;;;;;;;4974748;28;20031;-61
2023/08/14 05:25:35;;;;;;;23.70;10.40;;;;;;;;;;4973847;28;20077;-55
2023/08/14 05:28:01;;;;;;;17.52;8.23;;;;;;;;;;4974798;28;20368;-56
2023/08/14 05:30:27;;;;;;;23.33;9.45;;;;;;;;;;4974583;28;20023;-56
2023/08/14 05:32:54;;;;;;;20.60;9.25;;;;;;;;;;4971669;28;20058;-62
2023/08/14 05:35:23;;;;;;;25.95;12.23;;;;;;;;;;4973167;28;20091;-60
2023/08/14 05:37:52;;;;;;;22.95;10.57;;;;;;;;;;4973547;28;20425;-58
2023/08/14 05:40:19;;;;;;;;;;;;;;;;;;4974902;28;20031;-55
2023/08/14 05:42:45;;;;;;;20.77;10.00;;;;;;;;;;4972500;28;19919;-59
2023/08/14 05:45:11;;;;;;;21.30;10.38;;;;;;;;;;4973614;28;20034;-58
2023/08/14 05:47:37;;;;;;;25.65;10.57;;;;;;;;;;4958659;28;20031;-62
2023/08/14 05:50:03;;;;;;;23.25;11.38;;;;;;;;;;4968200;22;20392;-54
2023/08/14 05:52:29;;;;;;;24.10;12.57;;;;;;;;;;4951535;28;20087;-56
2023/08/14 05:54:55;;;;;;;21.67;10.77;;;;;;;;;;4951567;28;20594;-58
2023/08/14 05:57:21;;;;;;;25.50;10.38;;;;;;;;;;4935188;29;20039;-56
2023/08/14 05:59:47;;;;;;;24.13;12.05;;;;;;;;;;4932618;29;20119;-55
2023/08/14 06:02:13;;;;;;;28.35;11.85;;;;;;;;;;4933404;29;20036;-57
2023/08/14 06:04:40;;;;;;;22.00;10.70;;;;;;;;;;4949881;28;20067;-57
2023/08/14 06:07:06;;;;;;;26.35;12.25;;;;;;;;;;4951679;28;20359;-56
2023/08/14 06:09:32;;;;;;;23.40;12.80;;;;;;;;;;4952519;28;20034;-57
2023/08/14 06:11:58;;;;;;;21.90;12.07;;;;;;;;;;4951226;28;20130;-57
2023/08/14 06:14:24;;;;;;;24.63;12.60;;;;;;;;;;4952281;28;20031;-54
2023/08/14 06:16:50;;;;;;;23.10;12.93;;;;;;;;;;4952050;28;20023;-55
2023/08/14 06:19:16;;;;;;;26.17;12.45;;;;;;;;;;4951776;28;20039;-57
2023/08/14 06:21:42;;;;;;;25.20;11.50;;;;;;;;;;4950530;28;20098;-56
2023/08/14 06:24:08;;;;;;;29.33;13.05;;;;;;;;;;4933934;29;20037;-55
2023/08/14 06:26:34;;;;;;;20.95;11.98;;;;;;;;;;4931679;28;20392;-58
2023/08/14 06:29:00;;;;;;;25.13;13.15;;;;;;;;;;4932645;29;20043;-56
2023/08/14 06:31:26;;;;;;;28.55;12.60;;;;;;;;;;4932826;29;20028;-56
2023/08/14 06:33:52;;;;;;;24.85;13.60;;;;;;;;;;4937518;29;20429;-58
2023/08/14 06:36:18;;;;;;;24.98;13.30;;;;;;;;;;4951959;28;20027;-56
2023/08/14 06:38:44;;;;;;;23.13;12.02;;;;;;;;;;4949726;28;20031;-56
2023/08/14 06:41:10;;;;;;;25.92;13.15;;;;;;;;;;4947541;28;20034;-54
2023/08/14 06:43:36;;;;;;;21.50;12.52;;;;;;;;;;4940484;28;20032;-53
2023/08/14 06:46:02;;;;;;;21.45;12.95;;;;;;;;;;4932439;29;20023;-57
2023/08/14 06:48:30;;;;;;;24.55;13.35;;;;;;;;;;4947583;28;20024;-55
2023/08/14 06:50:57;;;;;;;22.73;12.23;;;;;;;;;;4951461;28;20027;-56
2023/08/14 06:53:23;;;;;;;25.70;13.17;;;;;;;;;;4951599;28;20111;-54
2023/08/14 06:55:49;;;;;;;21.48;12.75;;;;;;;;;;4945182;28;20111;-57
2023/08/14 06:58:15;;;;;;;26.98;14.63;;;;;;;;;;4948259;28;20081;-55
2023/08/14 07:00:41;;;;;;;23.38;13.00;;;;;;;;;;4936458;28;20035;-54
2023/08/14 07:03:07;;;;;;;23.73;12.93;;;;;;;;;;4932846;28;20129;-56
2023/08/14 07:05:33;;;;;;;23.35;13.63;;;;;;;;;;4932339;29;20028;-58
2023/08/14 07:07:59;;;;;;;23.52;14.38;;;;;;;;;;4932781;29;20575;-54
2023/08/14 07:10:25;;;;;;;25.50;15.10;;;;;;;;;;4931150;29;20054;-53
2023/08/14 07:12:51;;;;;;;22.73;13.77;;;;;;;;;;4938105;29;20063;-55
2023/08/14 07:15:17;;;;;;;27.10;14.88;;;;;;;;;;4931955;28;20051;-53
2023/08/14 07:17:43;;;;;;;25.17;14.50;;;;;;;;;;4931384;29;20035;-57
2023/08/14 07:20:09;;;;;;;24.10;15.40;;;;;;;;;;4932191;28;20461;-54
2023/08/14 07:22:35;;;;;;;23.27;14.77;;;;;;;;;;4932348;28;20032;-54
2023/08/14 07:25:02;;;;;;;25.35;14.88;;;;;;;;;;4931960;28;20047;-56
2023/08/14 07:27:28;;;;;;;25.77;14.30;;;;;;;;;;4948324;28;20118;-57
2023/08/14 07:29:54;;;;;;;25.17;14.90;;;;;;;;;;4951069;28;20493;-53
2023/08/14 07:32:20;;;;;;;23.55;13.80;;;;;;;;;;4950058;28;20031;-57
2023/08/14 07:34:46;;;;;;;26.95;15.13;;;;;;;;;;4950828;28;20444;-55
2023/08/14 07:37:12;;;;;;;21.83;13.70;;;;;;;;;;4950911;28;20032;-53
2023/08/14 07:39:38;;;;;;;24.20;14.07;;;;;;;;;;4949391;28;20141;-55
2023/08/14 07:42:04;;;;;;;22.50;12.75;;;;;;;;;;4940783;28;20082;-52
2023/08/14 07:44:30;;;;;;;29.98;14.57;;;;;;;;;;4930210;28;20080;-55
2023/08/14 07:46:56;;;;;;;22.17;13.23;;;;;;;;;;4931524;29;20034;-52
2023/08/14 07:49:22;;;;;;;22.52;12.43;;;;;;;;;;4931371;29;20039;-50
2023/08/14 07:51:48;;;;;;;23.75;13.68;;;;;;;;;;4932640;28;20055;-55
2023/08/14 07:54:14;;;;;;;25.20;14.10;;;;;;;;;;4931817;28;20071;-54
2023/08/14 07:56:40;;;;;;;21.73;13.43;;;;;;;;;;4935700;28;20027;-54
2023/08/14 07:59:06;;;;;;;20.23;12.52;;;;;;;;;;4950410;28;20085;-52
2023/08/14 08:01:32;;;;;;;24.83;12.75;;;;;;;;;;4950648;28;20047;-53
2023/08/14 08:03:59;;;;;;;24.30;13.65;;;;;;;;;;4950643;28;20023;-51
2023/08/14 08:06:25;;;;;;;22.63;12.80;;;;;;;;;;4950543;28;20403;-51
2023/08/14 08:08:51;;;;;;;26.65;12.57;;;;;;;;;;4947605;28;20124;-51
2023/08/14 08:11:17;;;;;;;23.05;12.98;;;;;;;;;;4942601;28;20028;-55
2023/08/14 08:13:43;;;;;;;23.48;12.32;;;;;;;;;;4933300;28;20035;-53
2023/08/14 08:16:09;;;;;;;24.27;12.75;;;;;;;;;;4950353;28;20023;-54
2023/08/14 08:18:35;;;;;;;22.52;13.40;;;;;;;;;;4950544;28;20035;-56
2023/08/14 08:21:01;;;;;;;23.88;13.13;;;;;;;;;;4943658;28;20121;-55
2023/08/14 08:23:27;;;;;;;24.27;13.73;;;;;;;;;;4944068;28;20372;-54
2023/08/14 08:25:54;;;;;;;23.17;12.88;;;;;;;;;;4946468;28;20100;-52
2023/08/14 08:28:20;;;;;;;26.23;13.45;;;;;;;;;;4950228;28;20051;-55
2023/08/14 08:30:46;;;;;;;21.65;12.90;;;;;;;;;;4953476;28;20078;-53
2023/08/14 08:33:12;;;;;;;24.02;12.68;;;;;;;;;;4948298;28;20027;-55
2023/08/14 08:35:38;;;;;;;27.15;13.02;;;;;;;;;;4944460;28;20090;-53
2023/08/14 08:38:04;;;;;;;22.70;12.07;;;;;;;;;;4942148;28;20032;-55
2023/08/14 08:40:31;;;;;;;25.48;12.07;;;;;;;;;;4948775;28;20035;-52
2023/08/14 08:42:58;;;;;;;25.98;11.75;;;;;;;;;;4953393;28;20034;-53
2023/08/14 08:45:25;;;;;;;22.83;12.27;;;;;;;;;;4953011;28;20062;-56
2023/08/14 08:47:52;;;;;;;23.38;11.45;;;;;;;;;;4952796;28;20051;-54
2023/08/14 08:50:18;;;;;;;19.73;11.25;;;;;;;;;;4953306;28;20484;-55
2023/08/14 08:52:45;;;;;;;20.33;11.80;;;;;;;;;;4951509;28;20043;-54
2023/08/14 08:55:12;;;;;;;20.42;11.90;;;;;;;;;;4934644;29;20031;-55
2023/08/14 08:57:38;;;;;;;21.13;10.93;;;;;;;;;;4941797;28;20027;-53
2023/08/14 09:00:05;;;;;;;23.85;10.77;;;;;;;;;;4952102;28;20038;-54
2023/08/14 09:02:31;;;;;;;20.23;11.18;;;;;;;;;;4952904;28;20039;-56
2023/08/14 09:04:57;;;;;;;19.73;10.70;;;;;;;;;;4951738;28;20261;-53
2023/08/14 09:07:23;;;;;;;20.65;10.13;;;;;;;;;;4949394;28;20027;-52
2023/08/14 09:09:49;;;;;;;19.73;10.52;;;;;;;;;;4933583;29;20381;-49
2023/08/14 09:12:15;;;;;;;18.17;10.13;;;;;;;;;;4933717;29;20028;-56
2023/08/14 09:14:45;;;;;;;21.38;10.60;;;;;;;;;;4933400;29;20039;-51
2023/08/14 09:17:11;;;;;;;18.60;10.02;;;;;;;;;;4933741;29;20036;-53
2023/08/14 09:19:40;;;;;;;18.95;10.18;;;;;;;;;;4935732;29;20031;-56
2023/08/14 09:22:06;;;;;;;20.50;9.85;;;;;;;;;;4983648;28;20036;-54
2023/08/14 09:24:34;;;;;;;18.85;10.80;;;;;;;;;;5024494;28;20037;-52
2023/08/14 09:27:00;;;;;;;19.27;10.38;;;;;;;;;;4953000;28;20513;-51
2023/08/14 09:29:30;;;;;;;18.70;9.30;;;;;;;;;;4952415;28;20539;-52
2023/08/14 09:31:56;;;;;;;18.60;10.23;;;;;;;;;;4951165;28;20032;-53
2023/08/14 09:34:21;;;;;;;20.13;10.20;;;;;;;;;;4952617;28;20537;-52
2023/08/14 09:36:48;;;;;;;18.70;10.07;;;;;;;;;;4941575;28;20074;-56
2023/08/14 09:39:14;;;;;;;20.00;10.63;;;;;;;;;;4935814;28;20023;-52
2023/08/14 09:41:40;;;;;;;20.95;10.40;;;;;;;;;;4948743;28;20118;-55
2023/08/14 09:44:06;;;;;;;19.38;9.75;;;;;;;;;;4937970;28;20130;-56
2023/08/14 09:46:32;;;;;;;19.20;10.65;;;;;;;;;;4933274;29;20093;-54
2023/08/14 09:48:58;;;;;;;19.88;11.00;;;;;;;;;;4932882;28;20059;-51
2023/08/14 09:51:24;;;;;;;18.88;9.88;;;;;;;;;;5042103;28;20040;-52
2023/08/14 09:53:51;;;;;;;16.85;9.32;;;;;;;;;;5052074;28;20025;-53
2023/08/14 09:56:18;;;;;;;17.58;10.30;;;;;;;;;;5046317;28;20094;-52
2023/08/14 09:58:44;;;;;;;17.67;10.60;;;;;;;;;;4948980;28;20024;-55
2023/08/14 10:01:14;;;;;;;19.30;10.95;;;;;;;;;;4951831;28;20380;-54
2023/08/14 10:03:46;;;;;;;19.13;10.35;;;;;;;;;;4952143;28;20027;-56
2023/08/14 10:06:12;;;;;;;20.58;11.32;;;;;;;;;;4950660;28;20138;-53
2023/08/14 10:08:40;;;;;;;19.75;10.60;;;;;;;;;;4945933;28;20472;-52
2023/08/14 10:11:06;;;;;;;20.70;10.32;;;;;;;;;;4945765;29;20541;-53
2023/08/14 10:13:33;;;;;;;17.95;9.75;;;;;;;;;;4933628;29;20032;-53
2023/08/14 10:16:00;;;;;;;16.88;10.02;;;;;;;;;;4932511;28;20176;-55
2023/08/14 10:18:29;;;;;;;18.73;10.23;;;;;;;;;;4932847;28;20090;-53
2023/08/14 10:20:56;;;;;;;19.75;10.93;;;;;;;;;;4934393;28;20024;-56
2023/08/14 10:23:22;;;;;;;20.63;10.93;;;;;;;;;;4939796;28;20392;-56
2023/08/14 10:25:50;;;;;;;18.02;11.13;;;;;;;;;;4950743;28;20035;-54
2023/08/14 10:28:18;;;;;;;18.42;11.27;;;;;;;;;;4951758;28;20550;-51
2023/08/14 10:30:45;;;;;;;19.63;12.03;;;;;;;;;;4951100;28;20031;-57
2023/08/14 10:33:12;;;;;;;16.50;10.45;;;;;;;;;;4951405;28;20110;-50
2023/08/14 10:35:59;;;;;;;17.73;11.13;;;;;;;;;;4951151;28;20046;-57
2023/08/14 10:38:38;;;;;;;17.40;10.13;;;;;;;;;;4942873;29;20040;-56
2023/08/14 10:41:05;;;;;;;22.13;10.27;;;;;;;;;;4941952;28;20106;-57
2023/08/14 10:43:31;;;;;;;19.80;10.55;;;;;;;;;;4951425;28;20039;-57
2023/08/14 10:45:57;;;;;;;17.65;10.32;;;;;;;;;;4950163;28;20031;-52
2023/08/14 10:48:24;;;;;;;16.30;10.77;;;;;;;;;;4951357;28;20027;-51
2023/08/14 10:50:57;;;;;;;17.63;11.00;;;;;;;;;;4951264;28;20039;-55
2023/08/14 10:53:23;;;;;;;18.40;10.98;;;;;;;;;;4951154;28;20028;-55
2023/08/14 10:55:49;;;;;;;18.23;10.88;;;;;;;;;;4949994;29;20027;-56
2023/08/14 10:58:35;;;;;;;19.92;11.23;;;;;;;;;;4951678;28;20438;-54
2023/08/14 11:01:05;;;;;;;16.75;11.00;;;;;;;;;;4951310;28;20111;-52
2023/08/14 11:03:50;;;;;;;20.23;12.13;;;;;;;;;;4949857;28;20023;-56
2023/08/14 11:06:23;;;;;;;20.00;11.13;;;;;;;;;;4946545;28;20043;-53
2023/08/14 11:08:50;;;;;;;20.27;10.88;;;;;;;;;;4931640;28;20031;-55
2023/08/14 11:11:16;;;;;;;17.63;11.48;;;;;;;;;;4932508;29;20035;-57
2023/08/14 11:13:42;;;;;;;20.85;11.77;;;;;;;;;;4932715;28;20073;-53
2023/08/14 11:16:08;;;;;;;18.98;11.10;;;;;;;;;;4931702;28;20028;-55
2023/08/14 11:18:35;;;;;;;18.33;11.40;;;;;;;;;;4931850;28;20042;-56
2023/08/14 11:21:01;;;;;;;19.15;12.40;;;;;;;;;;4939838;28;20084;-55
2023/08/14 11:23:26;;;;;;;17.80;11.95;;;;;;;;;;4949992;28;20110;-56
2023/08/14 11:25:55;;;;;;;21.27;12.30;;;;;;;;;;4950645;28;20034;-54
2023/08/14 11:28:21;;;;;;;18.08;12.50;;;;;;;;;;4950593;29;20156;-56
2023/08/14 11:30:47;;;;;;;19.30;13.40;;;;;;;;;;4950341;28;20039;-55
2023/08/14 11:33:13;;;;;;;22.73;13.90;;;;;;;;;;4950741;28;20058;-56
2023/08/14 11:35:39;;;;;;;19.88;13.55;;;;;;;;;;4935911;29;20085;-58
2023/08/14 11:38:05;;;;;;;18.13;12.55;;;;;;;;;;4947111;28;20031;-62
2023/08/14 11:40:32;;;;;;;18.13;12.95;;;;;;;;;;4936708;28;20438;-61
2023/08/14 11:43:00;;;;;;;18.70;13.30;;;;;;;;;;4950814;28;20375;-61
2023/08/14 11:45:27;;;;;;;20.13;13.65;;;;;;;;;;4933613;28;20032;-62
2023/08/14 11:47:53;;;;;;;21.60;14.63;;;;;;;;;;4931278;28;20584;-58
2023/08/14 11:50:19;;;;;;;21.00;14.27;;;;;;;;;;4932309;28;20122;-58
2023/08/14 11:52:45;;;;;;;22.67;13.70;;;;;;;;;;4931507;29;20024;-58
2023/08/14 11:55:13;;;;;;;18.70;13.75;;;;;;;;;;4929686;28;20027;-59
2023/08/14 11:57:39;;;;;;;21.02;14.20;;;;;;;;;;4931503;29;20023;-58
2023/08/14 12:00:13;;;;;;;19.25;14.88;;;;;;;;;;4931478;28;20081;-58
2023/08/14 12:02:39;;;;;;;21.77;14.95;;;;;;;;;;4931112;29;20035;-58
2023/08/14 12:05:05;;;;;;;18.73;13.82;;;;;;;;;;4931388;28;20490;-57
2023/08/14 12:07:31;;;;;;;17.73;14.20;;;;;;;;;;4931338;28;20031;-59
2023/08/14 12:09:58;;;;;;;21.35;15.07;;;;;;;;;;4930784;28;20028;-59
2023/08/14 12:12:25;;;;;;;21.45;15.48;;;;;;;;;;4931011;29;20508;-62
2023/08/14 12:14:52;;;;;;;18.52;14.98;;;;;;;;;;4942851;28;20058;-59
2023/08/14 12:17:18;;;;;;;17.70;14.30;;;;;;;;;;4949742;28;20031;-58
2023/08/14 12:20:03;;;;;;;19.38;14.48;;;;;;;;;;4950031;28;20493;-58
2023/08/14 12:22:31;;;;;;;18.83;14.80;;;;;;;;;;4949989;28;20035;-58
2023/08/14 12:24:57;;;;;;;19.48;15.25;;;;;;;;;;4949530;28;20084;-59
2023/08/14 12:27:23;;;;;;;19.92;14.57;;;;;;;;;;4950061;28;20039;-56
2023/08/14 12:29:50;;;;;;;19.90;14.63;;;;;;;;;;4949853;28;20043;-58
2023/08/14 12:32:16;;;;;;;20.33;14.98;;;;;;;;;;4950140;29;20019;-58
2023/08/14 12:34:42;;;;;;;20.90;14.80;;;;;;;;;;4949677;29;20054;-58
2023/08/14 12:37:11;;;;;;;20.25;15.25;;;;;;;;;;4950120;28;20709;-58
2023/08/14 12:39:37;;;;;;;20.02;15.20;;;;;;;;;;4950066;28;20025;-56
2023/08/14 12:42:03;;;;;;;19.90;15.02;;;;;;;;;;4949964;28;20101;-58
2023/08/14 12:44:29;;;;;;;21.35;15.52;;;;;;;;;;4949629;28;20023;-58
2023/08/14 12:46:55;;;;;;;19.38;15.43;;;;;;;;;;4940990;28;20469;-58
2023/08/14 12:49:21;;;;;;;18.35;14.48;;;;;;;;;;4945074;28;20031;-58
2023/08/14 12:51:48;;;;;;;20.73;15.13;;;;;;;;;;4930601;29;20420;-57
2023/08/14 12:54:14;;;;;;;18.33;14.38;;;;;;;;;;4930212;29;20024;-57
2023/08/14 12:56:40;;;;;;;17.65;13.98;;;;;;;;;;4945734;28;20073;-57
2023/08/14 12:59:06;;;;;;;19.98;14.48;;;;;;;;;;4946125;29;20112;-57
2023/08/14 13:01:32;;;;;;;19.80;14.52;;;;;;;;;;4940227;28;20046;-59
2023/08/14 13:03:58;;;;;;;19.05;14.73;;;;;;;;;;4949387;28;20035;-57
2023/08/14 13:06:24;;;;;;;18.92;14.25;;;;;;;;;;4934447;28;20452;-57
2023/08/14 13:08:51;;;;;;;18.25;13.70;;;;;;;;;;4949552;28;20039;-57
2023/08/14 13:11:18;;;;;;;19.85;14.02;;;;;;;;;;4949583;28;20106;-59
2023/08/14 13:13:44;;;;;;;18.52;14.00;;;;;;;;;;4949864;28;20038;-58
2023/08/14 13:16:10;;;;;;;19.40;13.63;;;;;;;;;;4933448;29;20024;-59
2023/08/14 13:18:36;;;;;;;19.20;13.98;;;;;;;;;;4933746;29;20412;-57
2023/08/14 13:21:02;;;;;;;19.65;13.80;;;;;;;;;;4939085;28;20471;-57
2023/08/14 13:23:28;;;;;;;19.58;14.65;;;;;;;;;;4952152;28;20106;-59
2023/08/14 13:25:54;;;;;;;18.48;14.10;;;;;;;;;;4951041;28;20024;-57
2023/08/14 13:28:20;;;;;;;20.60;15.00;;;;;;;;;;4952267;28;20484;-57
2023/08/14 13:30:49;;;;;;;21.60;14.02;;;;;;;;;;4952447;28;20031;-56
2023/08/14 13:33:15;;;;;;;19.67;13.50;;;;;;;;;;4952504;28;20034;-59
2023/08/14 13:35:41;;;;;;;17.73;13.70;;;;;;;;;;4951964;28;20024;-58
2023/08/14 13:38:07;;;;;;;17.17;13.57;;;;;;;;;;4955610;28;20061;-59
2023/08/14 13:40:33;;;;;;;19.13;13.80;;;;;;;;;;4958204;28;20440;-56
2023/08/14 13:42:59;;;;;;;17.40;13.60;;;;;;;;;;4953549;28;20039;-57
2023/08/14 13:45:25;;;;;;;16.87;13.63;;;;;;;;;;4602781;28;9999593;-58
2023/08/14 13:47:52;;;;;;;18.20;13.60;;;;;;;;;;4941559;28;20042;-59
2023/08/14 13:50:19;;;;;;;18.60;13.60;;;;;;;;;;4946112;28;20126;-58
2023/08/14 13:52:45;;;;;;;17.70;13.20;;;;;;;;;;4947376;28;20117;-58
2023/08/14 13:55:11;;;;;;;17.95;12.90;;;;;;;;;;4930180;29;20028;-57
2023/08/14 13:57:37;;;;;;;19.48;13.73;;;;;;;;;;4940525;28;20035;-59
2023/08/14 14:00:03;;;;;;;19.02;13.93;;;;;;;;;;4937926;28;20028;-58
2023/08/14 14:02:29;;;;;;;18.90;14.35;;;;;;;;;;4941170;29;20031;-56
2023/08/14 14:04:55;;;;;;;18.58;14.65;;;;;;;;;;4948811;28;20538;-57
2023/08/14 14:07:21;;;;;;;19.33;15.00;;;;;;;;;;4949589;28;20027;-54
2023/08/14 14:09:47;;;;;;;20.45;14.93;;;;;;;;;;4948761;28;20121;-56
2023/08/14 14:12:13;;;;;;;18.52;14.25;;;;;;;;;;4949149;28;20055;-54
2023/08/14 14:14:39;;;;;;;19.00;14.07;;;;;;;;;;4940036;28;20507;-55
2023/08/14 14:17:05;;;;;;;19.00;14.13;;;;;;;;;;4929974;29;20040;-55
2023/08/14 14:19:31;;;;;;;17.98;14.60;;;;;;;;;;4940790;28;20031;-55